sensor_id;sensor_type;location;lat;lon;timestamp;temperature;humidity
55693;DHT22;41590;53.366;5.212;2023-05-18T08:50:57;16.70;1.00
55693;DHT22;41590;53.366;5.212;2023-05-18T08:54:02;14.30;55.20
55693;DHT22;41590;53.366;5.212;2023-05-18T08:57:21;14.50;49.20
55693;DHT22;41590;53.366;5.212;2023-05-18T09:15:33;14.70;51.30
55693;DHT22;41590;53.366;5.212;2023-05-18T09:25:18;14.70;35.50
55693;DHT22;41590;53.366;5.212;2023-05-18T09:39:26;14.00;37.40
55693;DHT22;41590;53.366;5.212;2023-05-18T09:46:33;14.30;43.80
55693;DHT22;41590;53.366;5.212;2023-05-18T09:52:52;14.60;45.00
55693;DHT22;41590;53.366;5.212;2023-05-18T09:56:00;14.60;43.80
55693;DHT22;41590;53.366;5.212;2023-05-18T10:02:51;14.40;35.20
55693;DHT22;41590;53.366;5.212;2023-05-18T10:16:23;14.80;30.00
55693;DHT22;41590;53.366;5.212;2023-05-18T10:19:01;14.70;29.70
55693;DHT22;41590;53.366;5.212;2023-05-18T10:21:33;14.80;36.30
55693;DHT22;41590;53.366;5.212;2023-05-18T10:24:02;14.80;29.20
55693;DHT22;41590;53.366;5.212;2023-05-18T10:26:29;15.00;33.00
55693;DHT22;41590;53.366;5.212;2023-05-18T10:29:12;15.10;30.40
55693;DHT22;41590;53.366;5.212;2023-05-18T10:31:43;15.10;21.80
55693;DHT22;41590;53.366;5.212;2023-05-18T10:34:17;15.10;27.30
55693;DHT22;41590;53.366;5.212;2023-05-18T10:36:48;15.00;23.10
55693;DHT22;41590;53.366;5.212;2023-05-18T10:39:18;15.10;22.60
55693;DHT22;41590;53.366;5.212;2023-05-18T10:41:48;15.10;24.40
55693;DHT22;41590;53.366;5.212;2023-05-18T10:44:23;15.00;28.80
55693;DHT22;41590;53.366;5.212;2023-05-18T10:46:50;15.00;27.60
55693;DHT22;41590;53.366;5.212;2023-05-18T10:49:23;15.10;29.40
55693;DHT22;41590;53.366;5.212;2023-05-18T10:51:57;15.20;24.70
55693;DHT22;41590;53.366;5.212;2023-05-18T10:54:25;15.20;21.70
55693;DHT22;41590;53.366;5.212;2023-05-18T10:56:52;15.10;24.70
55693;DHT22;41590;53.366;5.212;2023-05-18T10:59:19;15.10;28.70
55693;DHT22;41590;53.366;5.212;2023-05-18T11:01:52;15.10;22.40
55693;DHT22;41590;53.366;5.212;2023-05-18T11:04:26;15.20;25.90
55693;DHT22;41590;53.366;5.212;2023-05-18T11:07:01;15.10;23.70
55693;DHT22;41590;53.366;5.212;2023-05-18T11:09:32;15.10;27.80
55693;DHT22;41590;53.366;5.212;2023-05-18T11:11:59;15.00;29.00
55693;DHT22;41590;53.366;5.212;2023-05-18T11:14:29;15.10;35.50
55693;DHT22;41590;53.366;5.212;2023-05-18T11:17:32;15.20;29.70
55693;DHT22;41590;53.366;5.212;2023-05-18T11:20:11;15.30;28.10
55693;DHT22;41590;53.366;5.212;2023-05-18T11:23:01;15.20;31.20
55693;DHT22;41590;53.366;5.212;2023-05-18T11:25:37;15.20;27.00
55693;DHT22;41590;53.366;5.212;2023-05-18T11:28:21;15.30;22.10
55693;DHT22;41590;53.366;5.212;2023-05-18T11:30:55;15.20;25.20
55693;DHT22;41590;53.366;5.212;2023-05-18T11:33:27;15.20;25.10
55693;DHT22;41590;53.366;5.212;2023-05-18T11:36:13;15.20;27.70
55693;DHT22;41590;53.366;5.212;2023-05-18T11:39:05;15.20;28.90
55693;DHT22;41590;53.366;5.212;2023-05-18T11:41:39;15.20;24.20
55693;DHT22;41590;53.366;5.212;2023-05-18T11:44:22;15.10;27.20
55693;DHT22;41590;53.366;5.212;2023-05-18T11:46:55;14.80;30.00
55693;DHT22;41590;53.366;5.212;2023-05-18T11:49:27;15.00;35.50
55693;DHT22;41590;53.366;5.212;2023-05-18T11:54:48;14.50;46.80
55693;DHT22;41590;53.366;5.212;2023-05-18T11:57:41;14.50;54.80
55693;DHT22;41590;53.366;5.212;2023-05-18T12:00:10;14.70;53.10
55693;DHT22;41590;53.366;5.212;2023-05-18T12:03:02;14.90;55.50
55693;DHT22;41590;53.366;5.212;2023-05-18T12:05:31;14.80;49.80
55693;DHT22;41590;53.366;5.212;2023-05-18T12:08:15;15.00;58.30
55693;DHT22;41590;53.366;5.212;2023-05-18T12:10:56;14.80;48.40
55693;DHT22;41590;53.366;5.212;2023-05-18T12:13:29;14.70;46.70
55693;DHT22;41590;53.366;5.212;2023-05-18T12:16:21;14.70;58.30
55693;DHT22;41590;53.366;5.212;2023-05-18T12:18:57;14.70;58.90
55693;DHT22;41590;53.366;5.212;2023-05-18T12:21:23;14.60;61.60
55693;DHT22;41590;53.366;5.212;2023-05-18T12:23:59;14.60;64.50
55693;DHT22;41590;53.366;5.212;2023-05-18T12:29:49;14.50;54.80
55693;DHT22;41590;53.366;5.212;2023-05-18T12:32:24;14.60;66.50
55693;DHT22;41590;53.366;5.212;2023-05-18T12:34:50;14.70;65.70
55693;DHT22;41590;53.366;5.212;2023-05-18T12:37:16;14.60;63.40
55693;DHT22;41590;53.366;5.212;2023-05-18T12:40:02;14.60;63.50
55693;DHT22;41590;53.366;5.212;2023-05-18T12:45:43;14.50;66.20
55693;DHT22;41590;53.366;5.212;2023-05-18T12:48:36;14.60;68.70
55693;DHT22;41590;53.366;5.212;2023-05-18T12:51:18;14.40;58.50
55693;DHT22;41590;53.366;5.212;2023-05-18T12:53:52;14.20;59.80
55693;DHT22;41590;53.366;5.212;2023-05-18T12:56:19;14.30;70.30
55693;DHT22;41590;53.366;5.212;2023-05-18T13:01:53;14.20;66.40
55693;DHT22;41590;53.366;5.212;2023-05-18T13:04:22;14.10;68.60
55693;DHT22;41590;53.366;5.212;2023-05-18T13:06:55;14.20;72.30
55693;DHT22;41590;53.366;5.212;2023-05-18T13:09:32;14.30;75.00
55693;DHT22;41590;53.366;5.212;2023-05-18T13:11:59;14.20;71.10
55693;DHT22;41590;53.366;5.212;2023-05-18T13:14:38;14.20;72.70
55693;DHT22;41590;53.366;5.212;2023-05-18T13:17:20;14.10;74.90
55693;DHT22;41590;53.366;5.212;2023-05-18T13:19:46;14.10;76.10
55693;DHT22;41590;53.366;5.212;2023-05-18T13:22:23;14.10;79.20
55693;DHT22;41590;53.366;5.212;2023-05-18T13:50:39;14.00;94.80
55693;DHT22;41590;53.366;5.212;2023-05-18T13:56:46;14.30;92.60
55693;DHT22;41590;53.366;5.212;2023-05-18T14:02:53;14.10;92.00
55693;DHT22;41590;53.366;5.212;2023-05-18T14:05:24;13.90;92.00
55693;DHT22;41590;53.366;5.212;2023-05-18T14:07:54;13.70;97.60
55693;DHT22;41590;53.366;5.212;2023-05-18T14:10:22;13.50;99.90
55693;DHT22;41590;53.366;5.212;2023-05-18T14:12:48;13.40;99.90
55693;DHT22;41590;53.366;5.212;2023-05-18T14:15:21;13.60;99.90
55693;DHT22;41590;53.366;5.212;2023-05-18T14:17:50;13.70;99.90
55693;DHT22;41590;53.366;5.212;2023-05-18T14:20:22;13.70;99.90
55693;DHT22;41590;53.366;5.212;2023-05-18T14:22:55;13.50;99.90
55693;DHT22;41590;53.366;5.212;2023-05-18T14:25:20;13.50;99.90
55693;DHT22;41590;53.366;5.212;2023-05-18T14:27:46;13.50;99.90
55693;DHT22;41590;53.366;5.212;2023-05-18T14:30:43;13.70;99.90
55693;DHT22;41590;53.366;5.212;2023-05-18T14:33:09;13.50;99.90
55693;DHT22;41590;53.366;5.212;2023-05-18T14:35:35;13.50;99.90
55693;DHT22;41590;53.366;5.212;2023-05-18T14:38:00;13.50;99.90
55693;DHT22;41590;53.366;5.212;2023-05-18T14:40:27;13.50;99.90
55693;DHT22;41590;53.366;5.212;2023-05-18T14:42:53;13.50;99.90
55693;DHT22;41590;53.366;5.212;2023-05-18T14:45:20;13.50;99.90
55693;DHT22;41590;53.366;5.212;2023-05-18T14:47:46;13.30;99.90
55693;DHT22;41590;53.366;5.212;2023-05-18T14:50:12;13.50;99.90
55693;DHT22;41590;53.366;5.212;2023-05-18T14:52:39;13.60;99.90
55693;DHT22;41590;53.366;5.212;2023-05-18T14:55:08;13.60;99.90
55693;DHT22;41590;53.366;5.212;2023-05-18T14:57:43;13.90;99.90
55693;DHT22;41590;53.366;5.212;2023-05-18T15:00:40;13.70;99.90
55693;DHT22;41590;53.366;5.212;2023-05-18T15:03:25;13.90;99.90
55693;DHT22;41590;53.366;5.212;2023-05-18T15:06:03;14.10;99.90
55693;DHT22;41590;53.366;5.212;2023-05-18T15:08:31;14.00;99.90
55693;DHT22;41590;53.366;5.212;2023-05-18T15:11:11;13.80;99.90
55693;DHT22;41590;53.366;5.212;2023-05-18T15:13:40;13.90;99.90
55693;DHT22;41590;53.366;5.212;2023-05-18T15:16:07;14.10;99.90
55693;DHT22;41590;53.366;5.212;2023-05-18T15:18:33;14.10;99.90
55693;DHT22;41590;53.366;5.212;2023-05-18T15:21:00;14.00;99.90
55693;DHT22;41590;53.366;5.212;2023-05-18T15:23:27;14.10;99.90
55693;DHT22;41590;53.366;5.212;2023-05-18T15:29:14;14.20;99.90
55693;DHT22;41590;53.366;5.212;2023-05-18T15:31:49;14.30;99.90
55693;DHT22;41590;53.366;5.212;2023-05-18T15:34:28;14.10;99.90
55693;DHT22;41590;53.366;5.212;2023-05-18T15:37:00;14.20;99.90
55693;DHT22;41590;53.366;5.212;2023-05-18T15:39:29;14.30;99.90
55693;DHT22;41590;53.366;5.212;2023-05-18T15:45:08;14.20;99.90
55693;DHT22;41590;53.366;5.212;2023-05-18T15:48:06;14.20;99.90
55693;DHT22;41590;53.366;5.212;2023-05-18T15:50:38;14.10;99.90
55693;DHT22;41590;53.366;5.212;2023-05-18T15:53:16;13.90;99.90
55693;DHT22;41590;53.366;5.212;2023-05-18T15:55:45;13.90;99.90
55693;DHT22;41590;53.366;5.212;2023-05-18T15:58:20;13.80;99.90
55693;DHT22;41590;53.366;5.212;2023-05-18T16:00:46;13.80;99.90
55693;DHT22;41590;53.366;5.212;2023-05-18T16:03:13;13.90;99.90
55693;DHT22;41590;53.366;5.212;2023-05-18T16:05:45;13.70;99.90
55693;DHT22;41590;53.366;5.212;2023-05-18T16:12:31;13.60;99.90
55693;DHT22;41590;53.366;5.212;2023-05-18T16:18:14;13.60;99.90
55693;DHT22;41590;53.366;5.212;2023-05-18T16:20:40;13.50;99.90
55693;DHT22;41590;53.366;5.212;2023-05-18T16:23:14;13.50;99.90
55693;DHT22;41590;53.366;5.212;2023-05-18T16:25:41;13.60;99.90
55693;DHT22;41590;53.366;5.212;2023-05-18T16:28:20;13.60;99.90
55693;DHT22;41590;53.366;5.212;2023-05-18T16:30:46;13.40;99.90
55693;DHT22;41590;53.366;5.212;2023-05-18T16:33:26;13.40;99.90
55693;DHT22;41590;53.366;5.212;2023-05-18T16:35:58;13.40;99.90
55693;DHT22;41590;53.366;5.212;2023-05-18T16:38:26;13.50;99.90
55693;DHT22;41590;53.366;5.212;2023-05-18T16:40:52;13.60;99.90
55693;DHT22;41590;53.366;5.212;2023-05-18T16:43:22;13.40;99.90
55693;DHT22;41590;53.366;5.212;2023-05-18T16:46:01;13.50;99.90
55693;DHT22;41590;53.366;5.212;2023-05-18T16:48:30;13.50;99.90
55693;DHT22;41590;53.366;5.212;2023-05-18T16:50:56;13.50;99.90
55693;DHT22;41590;53.366;5.212;2023-05-18T16:53:27;13.50;99.90
55693;DHT22;41590;53.366;5.212;2023-05-18T16:56:24;13.30;99.90
55693;DHT22;41590;53.366;5.212;2023-05-18T16:58:56;13.20;99.90
55693;DHT22;41590;53.366;5.212;2023-05-18T17:01:26;13.10;99.90
55693;DHT22;41590;53.366;5.212;2023-05-18T17:04:00;13.10;99.90
55693;DHT22;41590;53.366;5.212;2023-05-18T17:06:34;13.10;99.90
55693;DHT22;41590;53.366;5.212;2023-05-18T17:09:00;13.10;99.90
55693;DHT22;41590;53.366;5.212;2023-05-18T17:12:02;13.30;99.90
55693;DHT22;41590;53.366;5.212;2023-05-18T17:14:29;13.30;99.90
55693;DHT22;41590;53.366;5.212;2023-05-18T17:16:55;13.30;99.90
55693;DHT22;41590;53.366;5.212;2023-05-18T17:19:26;13.40;99.90
55693;DHT22;41590;53.366;5.212;2023-05-18T17:22:20;13.60;99.90
55693;DHT22;41590;53.366;5.212;2023-05-18T17:27:56;13.50;99.90
55693;DHT22;41590;53.366;5.212;2023-05-18T17:30:42;14.60;99.90
55693;DHT22;41590;53.366;5.212;2023-05-18T17:36:51;15.30;99.80
55693;DHT22;41590;53.366;5.212;2023-05-18T17:39:29;16.80;89.80
55693;DHT22;41590;53.366;5.212;2023-05-18T18:40:18;17.40;69.50
55693;DHT22;41590;53.366;5.212;2023-05-18T20:00:15;11.70;99.90
55693;DHT22;41590;53.366;5.212;2023-05-18T20:02:57;9.00;99.90
